CSD3 weather

Valleyfield Airport
Valleyfield, Quebec, Canada

Public forecast

Using degrees Celsius for public forecast. Weather courtesy of forecast.io.

Closest aviation weather report (METAR) to Valleyfield Airport

Closest report is Montreal / Pierre Elliott Trudeau International Airport, 23.1 nm (42.8 km) NE. Retrieved 2020/01/19 23:39 UTC (10 minutes ago):

CYUL 192339Z 01015G20KT 7SM -SN FEW015 OVC033 M11/M14 A2997 RMK SC2SC6 SLP154

Closest aviation forecast (TAF) to Valleyfield Airport

Closest forecast is Montreal / Pierre Elliott Trudeau International Airport, 23.1 nm (42.8 km) NE. Retrieved 2020/01/19 21:42 UTC (2 hours ago):

TAF CYUL 192038Z 1921/2018 33010KT P6SM -SN BKN030 BKN070 TEMPO 1921/1923 5SM -SN BKN020 OVC040 FM192300 32008KT P6SM SCT030 BKN050 FM200900 28008KT P6SM SKC BECMG 2014/2016 25012G22KT RMK NXT FCST BY 200000Z